Time;durP1;ratioP1;P1;durP2;ratioP2;P2;SDS_P1;SDS_P2;PMS_P1;PMS_P2;Temp;Humidity;BMP_temperature;BMP_pressure;BME280_temperature;BME280_humidity;BME280_pressure;Samples;Min_cycle;Max_cycle;Signal;HPM_P1;HPM_P2
2021/10/02 00:36:16;;;;;;;0.50;0.50;;;;;;;3.92;87.06;101582.03;5033869;28;20057;-74
2021/10/02 00:46:43;;;;;;;0.40;0.40;;;;;;;3.86;86.97;101583.13;5001863;28;20425;-71
2021/10/02 00:49:10;;;;;;;0.40;0.40;;;;;;;3.86;87.67;101580.47;4999189;28;20675;-72
2021/10/02 00:51:38;;;;;;;0.40;0.40;;;;;;;3.82;87.44;101574.34;4998924;28;20517;-72
2021/10/02 00:54:05;;;;;;;0.40;0.40;;;;;;;3.81;87.26;101586.00;5015929;28;20076;-72
2021/10/02 00:56:31;;;;;;;0.40;0.40;;;;;;;3.82;87.49;101576.16;5015360;28;20146;-72
2021/10/02 00:58:57;;;;;;;0.47;0.47;;;;;;;3.79;87.20;101577.16;5015771;28;20086;-73
2021/10/02 01:01:25;;;;;;;0.40;0.40;;;;;;;3.77;87.43;101578.16;5033638;28;20045;-73
2021/10/02 01:04:08;;;;;;;0.40;0.40;;;;;;;3.70;87.55;101571.31;5032227;28;20065;-73
2021/10/02 01:07:12;;;;;;;0.50;0.50;;;;;;;3.73;87.41;101576.50;4999892;28;20061;-73
2021/10/02 01:09:53;;;;;;;0.47;0.47;;;;;;;3.72;87.65;101574.78;5032770;28;20500;-73
2021/10/02 01:12:57;;;;;;;0.40;0.40;;;;;;;3.77;87.88;101572.81;5033970;28;20057;-72
2021/10/02 01:15:50;;;;;;;0.40;0.40;;;;;;;3.72;87.19;101570.28;5033405;28;20053;-72
2021/10/02 01:18:20;;;;;;;0.50;0.50;;;;;;;3.74;87.33;101570.25;5032361;28;20045;-73
2021/10/02 01:20:49;;;;;;;0.40;0.40;;;;;;;3.73;87.21;101565.81;4999126;28;20115;-72
2021/10/02 01:23:52;;;;;;;0.40;0.40;;;;;;;3.71;87.59;101578.41;5031814;28;20092;-73
2021/10/02 01:26:42;;;;;;;0.45;0.45;;;;;;;3.68;87.89;101573.16;5015248;28;20065;-73
2021/10/02 01:29:09;;;;;;;0.50;0.50;;;;;;;3.64;87.74;101572.41;5033304;28;20049;-73
2021/10/02 01:31:40;;;;;;;0.50;0.50;;;;;;;3.62;87.95;101569.81;5014944;28;20444;-72
2021/10/02 01:34:16;;;;;;;0.40;0.40;;;;;;;3.63;87.80;101571.53;5015605;28;20080;-72
2021/10/02 01:47:52;;;;;;;0.50;0.50;;;;;;;3.49;88.09;101568.53;5017425;28;20076;-73
2021/10/02 01:50:23;;;;;;;0.50;0.50;;;;;;;3.49;87.95;101571.19;5014770;28;20509;-72
2021/10/02 01:52:49;;;;;;;0.50;0.50;;;;;;;3.51;88.15;101572.03;5014985;28;20050;-73
2021/10/02 01:55:16;;;;;;;0.40;0.40;;;;;;;3.54;88.07;101561.19;5014427;28;20088;-73
2021/10/02 01:57:56;;;;;;;0.50;0.50;;;;;;;3.53;88.15;101559.44;5014768;28;20080;-72
2021/10/02 02:00:22;;;;;;;0.40;0.40;;;;;;;3.55;87.93;101567.44;4999045;28;20540;-72
2021/10/02 02:02:51;;;;;;;0.40;0.40;;;;;;;3.56;88.17;101559.34;5014235;28;20531;-73
2021/10/02 02:05:19;;;;;;;0.40;0.40;;;;;;;3.54;88.28;101558.50;5014266;28;20123;-71
2021/10/02 02:07:49;;;;;;;0.50;0.50;;;;;;;3.52;88.59;101557.72;4997920;28;20052;-73
2021/10/02 02:10:16;;;;;;;0.40;0.40;;;;;;;3.48;88.29;101566.78;4998213;28;20139;-72
2021/10/02 02:12:42;;;;;;;0.40;0.40;;;;;;;3.48;88.48;101566.78;5032266;28;20118;-72
2021/10/02 02:15:10;;;;;;;0.40;0.40;;;;;;;3.45;88.36;101566.91;4997947;28;20065;-72
2021/10/02 02:17:42;;;;;;;0.50;0.50;;;;;;;3.46;87.95;101573.97;5014030;28;20099;-72
2021/10/02 02:20:11;;;;;;;0.40;0.40;;;;;;;3.49;87.88;101568.53;5031711;28;20414;-71
2021/10/02 02:22:38;;;;;;;0.45;0.45;;;;;;;3.51;88.05;101580.03;5014225;28;20077;-72
2021/10/02 02:25:05;;;;;;;0.40;0.40;;;;;;;3.52;88.14;101573.75;4997449;28;20053;-72
2021/10/02 02:27:31;;;;;;;0.40;0.40;;;;;;;3.55;88.23;101584.34;4997482;28;20072;-72
2021/10/02 02:29:57;;;;;;;0.40;0.40;;;;;;;3.54;87.61;101571.00;5030186;28;20049;-74
2021/10/02 02:32:23;;;;;;;0.40;0.40;;;;;;;3.54;88.16;101566.53;4997732;28;20060;-74
2021/10/02 02:34:49;;;;;;;0.40;0.40;;;;;;;3.53;87.95;101575.50;4997892;28;20509;-72
2021/10/02 02:37:15;;;;;;;0.40;0.40;;;;;;;3.52;87.96;101568.41;5013735;28;20061;-73
2021/10/02 02:39:42;;;;;;;0.40;0.40;;;;;;;3.49;87.85;101567.66;5030237;28;20053;-73
2021/10/02 02:42:08;;;;;;;0.40;0.40;;;;;;;3.48;88.42;101572.13;5014581;28;20054;-74
2021/10/02 02:44:36;;;;;;;0.50;0.50;;;;;;;3.48;88.20;101566.78;5031826;28;20058;-74
2021/10/02 02:47:05;;;;;;;0.40;0.40;;;;;;;3.51;87.99;101566.69;5030538;28;20079;-74
2021/10/02 02:49:39;;;;;;;0.50;0.50;;;;;;;3.49;88.00;101565.84;5013866;28;20520;-72
2021/10/02 02:52:11;;;;;;;0.43;0.43;;;;;;;3.50;87.93;101564.91;5031688;28;20064;-72
2021/10/02 02:54:45;;;;;;;0.40;0.40;;;;;;;3.49;87.43;101568.53;5013479;28;20140;-73
2021/10/02 02:57:16;;;;;;;0.40;0.40;;;;;;;3.54;87.66;101569.19;5013420;28;20045;-73
2021/10/02 03:00:04;;;;;;;0.40;0.40;;;;;;;3.53;87.55;101564.78;5013540;28;20080;-73
2021/10/02 03:02:32;;;;;;;0.43;0.43;;;;;;;3.52;87.33;101573.75;5013590;28;20110;-72
2021/10/02 03:05:00;;;;;;;0.50;0.50;;;;;;;3.52;87.45;101573.75;5014080;28;20060;-74
2021/10/02 03:07:27;;;;;;;0.50;0.50;;;;;;;3.53;87.53;101575.50;5031222;28;20081;-73
2021/10/02 03:09:54;;;;;;;0.40;0.40;;;;;;;3.52;87.11;101573.75;5013241;28;20049;-72
2021/10/02 03:12:22;;;;;;;0.40;0.40;;;;;;;3.52;87.01;101579.09;5013274;28;20522;-72
2021/10/02 03:14:50;;;;;;;0.40;0.40;;;;;;;3.54;86.59;101577.22;5013472;28;20402;-73
2021/10/02 03:17:17;;;;;;;0.40;0.40;;;;;;;3.46;86.33;101573.97;4997453;28;20142;-73
2021/10/02 03:19:44;;;;;;;0.40;0.40;;;;;;;3.48;86.57;101576.63;5013035;28;20064;-73
2021/10/02 03:22:11;;;;;;;0.40;0.40;;;;;;;3.55;86.47;101575.44;4996511;28;20048;-73
2021/10/02 03:24:38;;;;;;;0.40;0.40;;;;;;;3.59;86.61;101572.59;5013077;28;20053;-73
2021/10/02 03:27:07;;;;;;;0.40;0.40;;;;;;;3.60;87.02;101568.97;5012827;28;20419;-73
2021/10/02 03:29:35;;;;;;;0.40;0.40;;;;;;;3.66;nan;101569.66;5013300;28;20064;-72
2021/10/02 03:32:06;;;;;;;0.40;0.40;;;;;;;3.72;87.23;101577.44;4996799;28;20053;-72
2021/10/02 03:34:33;;;;;;;0.40;0.40;;;;;;;3.73;87.11;101568.50;4996178;28;20152;-72
2021/10/02 03:36:59;;;;;;;0.40;0.40;;;;;;;3.73;87.05;101565.81;4995554;28;20369;-74
2021/10/02 03:39:25;;;;;;;0.40;0.40;;;;;;;3.71;87.35;101568.56;5013016;28;20532;-73
2021/10/02 03:42:03;;;;;;;0.40;0.40;;;;;;;3.74;87.39;101572.94;5029170;28;20060;-72
2021/10/02 03:44:29;;;;;;;0.40;0.40;;;;;;;3.73;87.28;101574.75;5028879;28;20057;-72
2021/10/02 03:46:55;;;;;;;0.40;0.40;;;;;;;3.72;87.16;101570.28;4996416;28;20061;-72
2021/10/02 03:49:20;;;;;;;0.40;0.40;;;;;;;3.71;87.35;101567.69;5012970;28;20559;-74
2021/10/02 03:51:46;;;;;;;0.40;0.40;;;;;;;3.72;87.21;101566.75;5012824;28;20053;-73
2021/10/02 03:54:12;;;;;;;0.40;0.40;;;;;;;3.71;87.51;101570.38;5012444;28;20049;-73
2021/10/02 03:56:38;;;;;;;0.40;0.40;;;;;;;3.74;87.84;101580.94;5012621;28;20112;-73
2021/10/02 03:59:04;;;;;;;0.40;0.40;;;;;;;3.71;87.97;101573.91;4996114;28;20144;-73
2021/10/02 04:01:30;;;;;;;0.50;0.50;;;;;;;3.73;87.98;101571.16;5012068;28;20053;-75
2021/10/02 04:03:55;;;;;;;0.47;0.47;;;;;;;3.75;88.00;101574.66;5030283;28;20092;-74
2021/10/02 04:06:21;;;;;;;0.40;0.40;;;;;;;3.71;87.78;101575.72;5012551;28;20412;-74
2021/10/02 04:08:47;;;;;;;0.43;0.43;;;;;;;3.76;87.60;101571.03;5029234;28;20484;-75
2021/10/02 04:11:13;;;;;;;0.50;0.50;;;;;;;3.80;87.25;101575.34;5029827;28;20063;-73
2021/10/02 04:13:39;;;;;;;0.50;0.50;;;;;;;3.83;86.74;101583.25;5029828;28;20053;-73
2021/10/02 04:16:05;;;;;;;0.40;0.40;;;;;;;3.74;86.67;101578.28;5013183;28;20053;-73
2021/10/02 04:18:34;;;;;;;0.50;0.50;;;;;;;3.67;86.39;101572.28;5012774;28;20501;-74
2021/10/02 04:21:00;;;;;;;0.50;0.50;;;;;;;3.59;86.25;101569.91;5028819;28;20360;-75
2021/10/02 04:23:26;;;;;;;0.50;0.50;;;;;;;3.63;86.10;101576.88;5030649;28;20052;-73
2021/10/02 04:25:52;;;;;;;0.50;0.50;;;;;;;3.67;85.99;101574.09;5030652;28;20049;-74
2021/10/02 04:28:18;;;;;;;0.50;0.50;;;;;;;3.62;86.01;101567.13;5030936;28;20107;-74
2021/10/02 04:30:44;;;;;;;0.50;0.50;;;;;;;3.56;86.29;101553.13;5030587;28;20088;-77
2021/10/02 04:33:10;;;;;;;0.50;0.50;;;;;;;3.70;85.78;101565.97;4996103;28;20472;-74
2021/10/02 04:35:36;;;;;;;0.45;0.45;;;;;;;3.91;85.58;101580.25;5012243;28;20488;-73
2021/10/02 04:38:02;;;;;;;0.50;0.50;;;;;;;4.00;85.34;101570.06;4996193;28;20053;-75
2021/10/02 04:40:28;;;;;;;0.50;0.50;;;;;;;3.90;85.75;101566.03;5029086;28;20492;-76
2021/10/02 04:42:54;;;;;;;0.47;0.47;;;;;;;3.88;85.25;101565.22;5012731;28;20053;-73
2021/10/02 04:45:19;;;;;;;0.50;0.50;;;;;;;3.81;84.75;101566.41;5030381;28;20198;-75
2021/10/02 04:47:46;;;;;;;0.50;0.50;;;;;;;3.85;85.30;101582.25;5014713;28;20061;-74
2021/10/02 04:50:13;;;;;;;0.50;0.50;;;;;;;3.92;84.35;101577.53;5033823;28;20143;-76
2021/10/02 04:52:39;;;;;;;0.50;0.50;;;;;;;4.01;83.84;101569.13;5000405;28;20516;-75
2021/10/02 04:55:06;;;;;;;0.50;0.50;;;;;;;4.00;84.51;101575.44;5016141;28;20049;-75
2021/10/02 04:57:32;;;;;;;0.50;0.50;;;;;;;4.07;84.56;101570.72;5015927;28;20057;-75
2021/10/02 04:59:58;;;;;;;0.55;0.55;;;;;;;4.14;84.34;101572.19;5033374;28;20095;-73
2021/10/02 05:02:24;;;;;;;0.50;0.50;;;;;;;4.15;83.39;101573.06;5033277;28;20064;-73
2021/10/02 05:04:50;;;;;;;0.50;0.50;;;;;;;4.27;83.42;101589.47;5015836;28;20502;-74
2021/10/02 05:07:16;;;;;;;0.50;0.50;;;;;;;4.23;83.10;101587.00;4999481;28;20567;-73
2021/10/02 05:09:42;;;;;;;0.50;0.50;;;;;;;4.36;83.33;101585.56;5017465;28;20045;-74
2021/10/02 05:12:11;;;;;;;0.50;0.50;;;;;;;4.51;81.86;101592.94;5016260;28;20062;-74
2021/10/02 05:14:39;;;;;;;0.50;0.50;;;;;;;4.58;81.37;101589.09;5016500;28;20049;-74
2021/10/02 05:17:05;;;;;;;0.50;0.50;;;;;;;4.79;80.18;101591.75;5015932;28;20068;-76
2021/10/02 05:19:31;;;;;;;0.50;0.50;;;;;;;4.90;79.91;101591.28;4999535;28;20057;-74
2021/10/02 05:21:58;;;;;;;0.50;0.50;;;;;;;5.16;79.56;101596.41;5015690;28;20112;-76
2021/10/02 05:24:24;;;;;;;0.50;0.50;;;;;;;5.35;77.94;101591.06;5015692;28;20539;-76
2021/10/02 05:26:49;;;;;;;0.50;0.50;;;;;;;5.48;78.17;101584.16;5015340;28;20057;-77
2021/10/02 05:29:15;;;;;;;0.52;0.52;;;;;;;5.65;77.69;101599.50;5014984;28;20061;-76
2021/10/02 05:31:41;;;;;;;0.50;0.50;;;;;;;5.51;77.70;101596.59;5015244;28;20053;-75
2021/10/02 05:34:07;;;;;;;0.50;0.50;;;;;;;5.33;78.04;101598.28;5015181;28;20484;-74
2021/10/02 05:36:33;;;;;;;0.50;0.50;;;;;;;5.45;77.70;101603.13;5015300;28;20065;-74
2021/10/02 05:38:58;;;;;;;0.40;0.40;;;;;;;5.29;77.79;101597.56;5015299;28;20528;-75
2021/10/02 05:41:24;;;;;;;0.50;0.50;;;;;;;5.38;77.84;101601.66;4999530;28;20081;-75
2021/10/02 05:43:50;;;;;;;0.50;0.50;;;;;;;5.39;78.13;101602.53;5015844;28;20045;-75
2021/10/02 05:46:16;;;;;;;0.50;0.50;;;;;;;5.35;77.71;101592.88;4998606;28;20472;-74
2021/10/02 05:48:42;;;;;;;0.50;0.50;;;;;;;5.51;77.42;101596.59;5015110;28;20156;-75
2021/10/02 05:51:09;;;;;;;0.50;0.50;;;;;;;5.67;76.73;101596.75;4998907;28;20072;-74
2021/10/02 05:53:35;;;;;;;0.50;0.50;;;;;;;5.74;76.56;101600.88;5015169;28;20053;-76
2021/10/02 05:56:01;;;;;;;0.50;0.50;;;;;;;5.87;76.13;101599.34;5033109;28;20061;-76
2021/10/02 05:58:27;;;;;;;0.50;0.50;;;;;;;5.88;75.85;101584.13;5031758;28;20053;-76
2021/10/02 06:00:53;;;;;;;0.50;0.50;;;;;;;5.95;75.62;101594.50;5000320;28;20057;-76
2021/10/02 06:03:19;;;;;;;0.60;0.60;;;;;;;6.25;75.14;101596.66;5015872;28;20068;-76
2021/10/02 06:05:44;;;;;;;0.50;0.50;;;;;;;6.33;74.14;101596.31;5015265;28;20085;-75
2021/10/02 06:08:10;;;;;;;0.50;0.50;;;;;;;6.37;74.29;101600.56;5031855;28;20142;-76
2021/10/02 06:10:37;;;;;;;0.50;0.50;;;;;;;6.47;75.04;101602.72;5014783;28;20144;-76
2021/10/02 06:13:03;;;;;;;0.50;0.50;;;;;;;6.74;73.66;101594.19;4998969;28;20073;-76
2021/10/02 06:15:29;;;;;;;0.50;0.50;;;;;;;7.03;72.00;101597.19;5014493;28;20111;-75
2021/10/02 06:17:55;;;;;;;0.50;0.50;;;;;;;7.28;71.64;101597.63;4998610;28;20049;-76
2021/10/02 06:20:22;;;;;;;0.50;0.50;;;;;;;7.16;70.97;101596.44;5014491;28;20065;-77
2021/10/02 06:22:48;;;;;;;0.50;0.50;;;;;;;7.13;71.53;101593.03;5014812;28;20053;-75
2021/10/02 06:25:16;;;;;;;0.50;0.50;;;;;;;7.31;71.43;101602.81;5014928;28;20067;-75
2021/10/02 06:27:42;;;;;;;0.60;0.60;;;;;;;7.57;70.68;101587.97;5014456;28;20042;-75
2021/10/02 06:30:08;;;;;;;0.50;0.50;;;;;;;7.58;69.91;101594.22;5032150;28;20111;-76
2021/10/02 06:32:34;;;;;;;0.60;0.60;;;;;;;7.68;69.29;101592.78;5014165;28;20394;-74
2021/10/02 06:35:00;;;;;;;0.52;0.52;;;;;;;7.91;68.75;101597.72;5014473;28;20046;-74
2021/10/02 06:37:26;;;;;;;0.60;0.60;;;;;;;7.93;68.35;101595.84;5014418;28;20049;-76
2021/10/02 06:39:52;;;;;;;0.60;0.60;;;;;;;7.91;68.51;101596.88;5014179;28;20493;-75
2021/10/02 06:42:18;;;;;;;0.50;0.50;;;;;;;7.81;68.28;101591.13;5014777;28;20050;-71
2021/10/02 06:44:43;;;;;;;0.55;0.55;;;;;;;8.04;67.64;101588.94;5032002;28;20159;-73
2021/10/02 06:47:09;;;;;;;0.50;0.50;;;;;;;8.10;67.38;101586.78;5035143;28;20057;-74
2021/10/02 06:49:35;;;;;;;0.50;0.50;;;;;;;8.11;66.95;101587.66;4983671;28;20461;-74
2021/10/02 06:52:01;;;;;;;0.60;0.60;;;;;;;8.14;66.86;101592.88;5017542;28;20046;-77
2021/10/02 06:54:27;;;;;;;0.50;0.50;;;;;;;8.05;67.10;101588.03;5019446;28;20059;-79
2021/10/02 06:56:53;;;;;;;0.60;0.60;;;;;;;8.53;66.11;101596.94;5027037;28;20050;-73
2021/10/02 06:59:20;;;;;;;0.50;0.50;;;;;;;8.75;66.05;101607.31;5018253;28;20224;-80
2021/10/02 07:01:46;;;;;;;0.50;0.50;;;;;;;8.94;65.26;101599.84;5019382;28;20519;-77
2021/10/02 07:04:12;;;;;;;0.50;0.50;;;;;;;8.68;65.80;101593.34;4988700;28;20517;-74
2021/10/02 07:06:38;;;;;;;0.50;0.50;;;;;;;8.00;66.14;101590.94;5022245;28;20061;-76
2021/10/02 07:09:04;;;;;;;0.50;0.50;;;;;;;8.00;66.16;101595.47;5012913;28;20053;-74
2021/10/02 07:11:30;;;;;;;0.50;0.50;;;;;;;7.69;66.76;101586.44;5001874;28;20049;-72
2021/10/02 07:13:55;;;;;;;0.50;0.50;;;;;;;7.59;67.67;101585.19;5012787;28;20068;-73
2021/10/02 07:16:21;;;;;;;0.50;0.50;;;;;;;7.84;67.16;101590.94;4980221;28;20131;-74
2021/10/02 07:18:47;;;;;;;0.50;0.50;;;;;;;7.99;67.03;101594.59;5002698;28;20041;-75
2021/10/02 07:21:13;;;;;;;0.50;0.50;;;;;;;7.97;65.91;101600.09;5025934;28;20046;-74
2021/10/02 07:23:39;;;;;;;0.50;0.50;;;;;;;8.09;65.12;101592.28;5002932;28;20046;-75
2021/10/02 07:26:07;;;;;;;0.60;0.60;;;;;;;8.23;65.42;101589.66;5012777;28;20537;-74
2021/10/02 07:28:33;;;;;;;0.60;0.60;;;;;;;8.67;64.09;101599.69;5020793;28;20417;-76
2021/10/02 07:30:59;;;;;;;0.60;0.60;;;;;;;8.41;64.92;101588.63;4995910;28;20049;-74
2021/10/02 07:33:26;;;;;;;0.60;0.60;;;;;;;9.01;63.75;101603.06;5003488;28;20834;-74
2021/10/02 07:35:52;;;;;;;0.60;0.60;;;;;;;9.54;61.40;101593.44;5028168;28;20060;-74
2021/10/02 07:38:18;;;;;;;0.60;0.60;;;;;;;9.36;61.50;101590.97;4995514;28;20132;-75
2021/10/02 07:40:44;;;;;;;0.50;0.50;;;;;;;9.18;61.33;101592.09;5012851;28;20092;-74
2021/10/02 07:43:12;;;;;;;0.50;0.50;;;;;;;8.81;62.56;101602.44;5028201;28;20053;-75
2021/10/02 07:45:39;;;;;;;0.50;0.50;;;;;;;8.76;63.50;101600.97;5028550;28;20056;-75
2021/10/02 07:48:05;;;;;;;0.50;0.50;;;;;;;8.86;63.17;101597.63;5012620;28;20057;-75
2021/10/02 07:50:31;;;;;;;0.50;0.50;;;;;;;9.15;62.52;101589.59;5011954;28;20049;-75
2021/10/02 07:52:58;;;;;;;0.50;0.50;;;;;;;9.26;62.69;101595.19;4978771;28;20052;-75
2021/10/02 07:55:25;;;;;;;0.50;0.50;;;;;;;9.74;61.54;101584.97;5026057;28;20057;-74
2021/10/02 07:57:51;;;;;;;0.50;0.50;;;;;;;9.76;60.28;101592.97;5023034;28;20056;-74
2021/10/02 08:00:19;;;;;;;0.50;0.50;;;;;;;10.09;59.77;101589.91;4995460;28;20049;-75
2021/10/02 08:02:52;;;;;;;0.50;0.50;;;;;;;10.22;58.96;101590.84;5026356;28;20199;-74
2021/10/02 08:05:19;;;;;;;0.60;0.60;;;;;;;10.53;58.00;101580.72;5009808;28;20061;-74
2021/10/02 08:07:47;;;;;;;0.50;0.50;;;;;;;9.99;59.10;101586.09;5041964;28;20493;-74
2021/10/02 08:10:15;;;;;;;0.60;0.60;;;;;;;10.04;59.38;101592.06;5011644;28;20101;-74
2021/10/02 08:12:41;;;;;;;0.60;0.60;;;;;;;9.86;59.97;101589.56;5028795;28;20076;-75
2021/10/02 08:15:08;;;;;;;0.60;0.60;;;;;;;9.93;59.87;101589.19;4979410;28;20554;-74
2021/10/02 08:17:35;;;;;;;0.60;0.60;;;;;;;10.35;58.71;101590.94;4980098;28;20077;-74
2021/10/02 08:20:08;;;;;;;0.60;0.60;;;;;;;10.96;57.14;101592.19;5027714;28;20048;-75
2021/10/02 08:22:43;;;;;;;0.60;0.60;;;;;;;11.46;55.99;101586.91;4996347;28;20081;-74
2021/10/02 08:25:10;;;;;;;0.50;0.50;;;;;;;11.97;54.25;101584.16;4983127;28;20088;-74
2021/10/02 08:27:37;;;;;;;0.50;0.50;;;;;;;11.86;54.07;101584.06;5015143;28;20053;-74
2021/10/02 08:30:05;;;;;;;0.60;0.60;;;;;;;11.56;54.81;101585.28;5023120;28;20119;-73
2021/10/02 08:32:31;;;;;;;0.50;0.50;;;;;;;11.97;54.53;101586.84;5047517;28;20045;-76
2021/10/02 08:34:57;;;;;;;0.60;0.60;;;;;;;12.38;53.01;101588.31;4999630;28;20053;-76
2021/10/02 08:37:23;;;;;;;0.60;0.60;;;;;;;12.27;53.09;101581.84;5005071;28;20462;-75
2021/10/02 08:39:49;;;;;;;0.68;0.68;;;;;;;11.75;54.13;101584.81;5034448;28;20103;-76
2021/10/02 08:42:15;;;;;;;0.70;0.70;;;;;;;12.27;52.77;101579.16;4999638;28;20069;-73
2021/10/02 08:44:42;;;;;;;0.60;0.60;;;;;;;12.85;50.80;101581.13;5015450;28;20053;-73
2021/10/02 08:47:09;;;;;;;0.50;0.50;;;;;;;12.59;51.03;101573.16;4999317;28;20088;-74
2021/10/02 08:49:39;;;;;;;0.40;0.40;;;;;;;12.66;50.82;101577.13;5049142;28;20065;-80
2021/10/02 08:52:06;;;;;;;0.40;0.40;;;;;;;12.62;51.11;101575.63;5015546;28;20080;-77
2021/10/02 08:54:43;;;;;;;0.40;0.40;;;;;;;12.66;50.88;101576.25;5037142;28;20496;-79
2021/10/02 08:57:10;;;;;;;0.40;0.40;;;;;;;11.86;53.21;101570.50;5032275;28;20052;-78
2021/10/02 08:59:37;;;;;;;0.40;0.40;;;;;;;11.55;53.97;101578.09;5014393;28;20057;-76
2021/10/02 09:02:06;;;;;;;0.40;0.40;;;;;;;11.64;54.24;101577.47;5034012;28;20061;-77
2021/10/02 09:04:32;;;;;;;0.40;0.40;;;;;;;11.31;55.04;101575.31;5031504;28;20057;-78
2021/10/02 09:06:58;;;;;;;0.40;0.40;;;;;;;11.16;55.91;101579.13;4983780;28;20437;-77
2021/10/02 09:09:24;;;;;;;0.40;0.40;;;;;;;11.21;54.18;101569.69;5014915;28;20107;-77
2021/10/02 09:11:51;;;;;;;0.40;0.40;;;;;;;10.71;56.16;101576.75;5043110;28;20053;-79
2021/10/02 09:14:18;;;;;;;0.40;0.40;;;;;;;10.61;56.33;101581.06;5032455;28;20125;-79
2021/10/02 09:16:44;;;;;;;0.40;0.40;;;;;;;11.00;55.75;101582.00;5031515;28;20057;-78
2021/10/02 09:19:11;;;;;;;0.40;0.40;;;;;;;11.10;53.61;101572.28;5036758;28;20049;-78
2021/10/02 09:22:07;;;;;;;0.40;0.40;;;;;;;11.18;53.47;101579.84;5049031;28;20060;-78
2021/10/02 09:24:36;;;;;;;0.40;0.40;;;;;;;11.01;53.47;101587.31;4947178;28;20124;-78
2021/10/02 09:27:03;;;;;;;0.40;0.40;;;;;;;10.97;53.18;101576.78;5017778;28;20087;-77
2021/10/02 09:29:40;;;;;;;0.30;0.30;;;;;;;10.35;55.21;101575.59;5033895;28;20080;-77
2021/10/02 09:32:17;;;;;;;0.32;0.32;;;;;;;10.54;54.05;101577.91;5032332;28;20101;-76
2021/10/02 09:34:49;;;;;;;0.40;0.40;;;;;;;10.59;54.86;101566.78;5042608;28;20045;-76
2021/10/02 09:37:25;;;;;;;0.40;0.40;;;;;;;10.40;55.31;101571.72;5049318;28;20603;-79
2021/10/02 09:39:56;;;;;;;0.40;0.40;;;;;;;10.33;55.50;101561.28;5029617;28;20462;-78
2021/10/02 09:42:40;;;;;;;0.40;0.40;;;;;;;10.49;55.27;101566.53;5014975;28;20075;-76
2021/10/02 09:45:18;;;;;;;0.40;0.40;;;;;;;10.67;55.00;101564.41;5030466;28;20053;-77
2021/10/02 09:47:57;;;;;;;0.40;0.40;;;;;;;10.61;55.06;101564.84;4998575;28;20045;-77
2021/10/02 09:50:27;;;;;;;0.38;0.38;;;;;;;10.50;54.86;101567.41;5033272;28;20468;-77
2021/10/02 09:52:56;;;;;;;0.40;0.40;;;;;;;10.26;55.77;101562.66;5033086;28;20055;-79
2021/10/02 09:55:30;;;;;;;0.40;0.40;;;;;;;10.19;56.19;101555.91;5050035;28;20088;-77
2021/10/02 09:58:05;;;;;;;0.40;0.40;;;;;;;10.25;55.55;101563.66;5012397;28;20119;-75
2021/10/02 10:00:34;;;;;;;0.40;0.40;;;;;;;10.31;55.55;101567.75;5033449;28;20136;-76
2021/10/02 10:03:04;;;;;;;0.40;0.40;;;;;;;10.37;55.77;101562.81;5009401;28;20068;-76
2021/10/02 10:05:34;;;;;;;0.40;0.40;;;;;;;10.24;55.67;101561.88;4981980;28;20059;-75
2021/10/02 10:08:03;;;;;;;0.40;0.40;;;;;;;10.25;55.47;101552.84;5012491;28;20077;-76
2021/10/02 10:10:31;;;;;;;0.40;0.40;;;;;;;10.33;55.37;101558.59;5015051;28;20481;-76
2021/10/02 10:13:02;;;;;;;0.40;0.40;;;;;;;10.39;55.33;101570.84;5015482;28;20156;-75
2021/10/02 10:15:34;;;;;;;0.40;0.40;;;;;;;10.54;55.34;101552.72;5014805;28;20131;-75
2021/10/02 10:18:00;;;;;;;0.40;0.40;;;;;;;10.55;55.36;101559.84;5006416;28;20045;-75
2021/10/02 10:20:54;;;;;;;0.40;0.40;;;;;;;10.65;56.16;101555.56;5021540;28;20460;-74
2021/10/02 10:23:33;;;;;;;0.35;0.35;;;;;;;10.65;55.49;101558.25;4989615;28;20049;-77
2021/10/02 10:26:19;;;;;;;0.50;0.50;;;;;;;10.62;55.48;101551.22;5006037;28;20065;-71
2021/10/02 10:28:49;;;;;;;0.40;0.40;;;;;;;10.04;56.66;101565.91;5020406;28;20048;-78
2021/10/02 10:31:20;;;;;;;0.40;0.40;;;;;;;9.85;57.58;101550.03;5018752;28;20060;-76
2021/10/02 10:33:52;;;;;;;0.40;0.40;;;;;;;10.28;56.57;101549.06;5004106;28;20053;-76
2021/10/02 10:36:19;;;;;;;0.47;0.47;;;;;;;10.45;56.02;101547.91;5024833;28;20214;-77
2021/10/02 10:38:45;;;;;;;0.40;0.40;;;;;;;10.62;55.57;101540.41;5004649;28;20132;-76
2021/10/02 10:41:14;;;;;;;0.40;0.40;;;;;;;10.63;55.54;101535.84;5019773;28;20229;-77
2021/10/02 10:43:41;;;;;;;0.30;0.30;;;;;;;10.69;55.48;101540.84;5021147;28;20056;-73
2021/10/02 10:46:09;;;;;;;0.40;0.40;;;;;;;10.72;55.31;101543.34;5016274;28;20136;-76
2021/10/02 10:48:36;;;;;;;0.40;0.40;;;;;;;10.79;54.73;101541.94;5002183;28;20053;-75
2021/10/02 10:51:04;;;;;;;0.40;0.40;;;;;;;10.61;55.34;101543.22;5018557;28;20135;-80
2021/10/02 10:53:41;;;;;;;0.30;0.30;;;;;;;10.68;55.12;101536.41;5022204;28;20041;-78
2021/10/02 10:56:08;;;;;;;0.40;0.40;;;;;;;10.66;55.42;101540.19;5002558;28;20458;-75
2021/10/02 10:58:34;;;;;;;0.40;0.40;;;;;;;10.75;55.02;101535.03;5003838;28;20045;-80
2021/10/02 11:01:03;;;;;;;0.40;0.40;;;;;;;10.79;55.23;101541.09;5011401;28;20049;-77
2021/10/02 11:03:48;;;;;;;0.40;0.40;;;;;;;10.48;56.34;101534.19;5004191;28;20532;-78
2021/10/02 11:06:18;;;;;;;0.30;0.30;;;;;;;10.43;55.81;101544.47;5020743;28;20139;-78
2021/10/02 11:09:04;;;;;;;0.30;0.30;;;;;;;10.53;55.66;101545.56;5004083;28;20061;-75
2021/10/02 11:11:53;;;;;;;0.50;0.50;;;;;;;10.40;56.03;101539.25;5002445;28;20143;-77
2021/10/02 11:14:22;;;;;;;0.30;0.30;;;;;;;10.43;56.01;101531.81;5009093;28;20105;-80
2021/10/02 11:16:58;;;;;;;0.40;0.40;;;;;;;10.40;56.09;101547.38;5031805;28;20132;-80
2021/10/02 11:19:31;;;;;;;0.40;0.40;;;;;;;10.44;56.00;101543.50;5012768;28;20144;-78
2021/10/02 11:23:04;;;;;;;0.40;0.40;;;;;;;10.56;55.93;101535.38;4981830;28;20046;-79
2021/10/02 11:25:30;;;;;;;0.40;0.40;;;;;;;10.64;55.04;101537.59;4986081;28;20513;-79
2021/10/02 11:28:25;;;;;;;0.40;0.40;;;;;;;10.73;54.63;101533.38;5013655;28;20054;-78
2021/10/02 11:30:53;;;;;;;0.40;0.40;;;;;;;10.82;54.22;101524.63;5019267;28;20451;-81
2021/10/02 11:33:41;;;;;;;0.40;0.40;;;;;;;10.75;54.42;101526.00;5021016;28;20151;-80
2021/10/02 11:36:28;;;;;;;0.40;0.40;;;;;;;10.90;54.28;101538.50;5031758;28;20183;-78
2021/10/02 11:39:12;;;;;;;0.40;0.40;;;;;;;11.03;54.40;101538.50;5040079;28;20216;-79
2021/10/02 11:41:44;;;;;;;;;;;;;;;11.06;54.18;101538.28;5050045;28;20061;-79
2021/10/02 11:44:12;;;;;;;0.40;0.40;;;;;;;10.95;53.90;101538.16;5014536;28;19929;-80
2021/10/02 11:46:38;;;;;;;0.30;0.30;;;;;;;10.89;54.38;101534.03;5012869;28;20498;-80
2021/10/02 11:49:19;;;;;;;0.40;0.40;;;;;;;10.79;54.85;101530.25;4995808;28;20061;-80
2021/10/02 11:52:10;;;;;;;0.40;0.40;;;;;;;10.80;55.05;101532.00;4980605;28;20057;-80
2021/10/02 11:54:36;;;;;;;0.40;0.40;;;;;;;10.69;54.90;101524.63;5037184;28;20060;-78
2021/10/02 11:57:16;;;;;;;0.40;0.40;;;;;;;10.71;54.79;101522.66;5047493;28;20060;-79
2021/10/02 11:59:44;;;;;;;0.40;0.40;;;;;;;10.93;54.38;101523.88;5038453;28;20124;-79
2021/10/02 12:02:11;;;;;;;0.40;0.40;;;;;;;10.66;55.22;101514.00;5019150;28;20425;-79
2021/10/02 12:04:37;;;;;;;0.50;0.50;;;;;;;10.95;54.28;101513.81;5033069;28;20068;-79
2021/10/02 12:07:03;;;;;;;0.52;0.52;;;;;;;11.59;52.64;101520.06;5018036;28;20061;-78
2021/10/02 12:09:30;;;;;;;0.40;0.40;;;;;;;11.85;52.68;101514.56;5034987;28;20104;-78
2021/10/02 12:11:56;;;;;;;0.38;0.38;;;;;;;11.68;52.07;101518.50;4999486;28;20441;-78
2021/10/02 12:14:24;;;;;;;0.30;0.30;;;;;;;11.32;52.81;101512.91;5046575;28;20049;-79
2021/10/02 12:17:00;;;;;;;0.30;0.30;;;;;;;11.28;53.87;101511.41;5050441;28;20053;-79
2021/10/02 12:19:27;;;;;;;0.60;0.60;;;;;;;11.65;52.48;101497.03;5031961;28;20073;-81
2021/10/02 12:22:00;;;;;;;0.70;0.70;;;;;;;12.57;50.48;101507.25;5032452;28;20061;-78
2021/10/02 12:24:35;;;;;;;0.40;0.40;;;;;;;12.75;49.34;101511.25;5034300;28;20065;-79
2021/10/02 12:27:07;;;;;;;0.30;0.30;;;;;;;12.64;49.45;101508.53;5047771;28;20097;-73
2021/10/02 12:29:48;;;;;;;0.30;0.30;;;;;;;12.35;50.16;101515.31;5016118;28;20111;-79
2021/10/02 12:32:16;;;;;;;0.30;0.30;;;;;;;12.08;50.57;101505.59;5034081;28;20137;-79
2021/10/02 12:34:47;;;;;;;0.40;0.40;;;;;;;12.02;50.81;101500.63;5018463;28;20416;-80
2021/10/02 12:37:16;;;;;;;0.30;0.30;;;;;;;11.89;50.96;101499.84;5050650;28;20167;-77